Darstellungsparameter: Aktuell verwendete Einstellungen:
Skalierung der Graphiken ... ?
xyx+y,   Skalierungsfaktor:      Skalierung: Modus: x, Faktor: 1
Darstellungszeitraum ... ?
Vom - - bis: - -   Zeitraum: 17.05.2020 - 16.08.2020
Min/Max/Avg-Anzeige ... ?
Zeige MMA aktuell
Zeige MMA Monat
Zeige MMA alles
Zeige --A aktuell
Zeige --A Monat
Zeige --A alles
Keine MMA-Anzeige
MMA:
Average (ber die Originaldaten)
MMA-Basis: 17.05.2020 - 16.08.2020
Quicknavigation für Darstellung... ?
Tage:      1T, 2T, 3T, 5T -1T -2T -3T -5T +1T +2T +3T +5T
Wochen: 1W, 2W, 3W -1W -2W -3W +1W +2W +3W
Monate: 1M, 3M, 6M -1M -3M -6M +1M +3M +6M
Jahre:    1J, 3J, 5J, 10J -1J -3J -5J -10J +1J +3J +5J +10J
Nutze für die Darstellung ... ?
Originaldaten oder ...
Mittelwerte Minima Maxima auf...
Stundenbasis Tagesbasis Wochenbasis
Monatsbasis Jahresbasis      Datenbasis: Mittelwerte auf Tagesbasis
Darstellen als:
Statistik (Auto) Statistik J:M      Darstellung:
Zur Graphik,    zurück zur Übersicht aller Sensoren.
 
Tabellarische Datenbersicht: ?
 
Sensor: Nr:Datum:Temp:Abs-Feuchte:Windchill:Wind:
Aussen-T/F 1 17-05-2020 00:00:00 13.11528 C 7.24 g/m*3 13.12 C 5.45208 km/h
2 18-05-2020 00:00:00 15.67292 C 8.67 g/m*3 15.67 C 4.54201 km/h
3 19-05-2020 00:00:00 16.60729 C 9.31 g/m*3 16.61 C 4.70694 km/h
4 20-05-2020 00:00:00 17.77917 C 10.91 g/m*3 17.78 C 5.79792 km/h
5 21-05-2020 00:00:00 19.01562 C 11.3 g/m*3 19.02 C 4.26215 km/h
6 22-05-2020 00:00:00 19.97639 C 12.99 g/m*3 19.98 C 4.51806 km/h
7 23-05-2020 00:00:00 13.69236 C 10.37 g/m*3 13.69 C 7.32083 km/h
8 24-05-2020 00:00:00 13.58542 C 8.77 g/m*3 13.59 C 8.86458 km/h
9 25-05-2020 00:00:00 15.93854 C 10.17 g/m*3 15.94 C 6.43507 km/h
10 26-05-2020 00:00:00 14.58437 C 8.98 g/m*3 14.58 C 4.27986 km/h
11 27-05-2020 00:00:00 16.48611 C 9.1 g/m*3 16.49 C 3.63056 km/h
12 28-05-2020 00:00:00 17.49132 C 8.08 g/m*3 17.49 C 7.57882 km/h
13 29-05-2020 00:00:00 15.20764 C 7.52 g/m*3 15.21 C 5.83229 km/h
14 30-05-2020 00:00:00 15.6941 C 7.43 g/m*3 15.69 C 7.54688 km/h
15 31-05-2020 00:00:00 15.11597 C 7.85 g/m*3 15.12 C 6.56979 km/h
16 01-06-2020 00:00:00 17.87257 C 9.2 g/m*3 17.87 C 5.67674 km/h
17 02-06-2020 00:00:00 19.76701 C 9.86 g/m*3 19.77 C 4.21389 km/h
18 03-06-2020 00:00:00 19.96667 C 10.41 g/m*3 19.97 C 3.58403 km/h
19 04-06-2020 00:00:00 14.67257 C 11.5 g/m*3 14.67 C 3.93715 km/h
20 05-06-2020 00:00:00 11.51111 C 8.89 g/m*3 11.51 C 8.28194 km/h
21 06-06-2020 00:00:00 12.4684 C 8.91 g/m*3 12.47 C 7.64097 km/h
22 07-06-2020 00:00:00 13.39861 C 8.64 g/m*3 13.4 C 6.02326 km/h
23 08-06-2020 00:00:00 14.75035 C 9.21 g/m*3 14.75 C 4.38229 km/h
24 09-06-2020 00:00:00 13.99236 C 10.65 g/m*3 13.99 C 4.11076 km/h
25 10-06-2020 00:00:00 15.4 C 11.26 g/m*3 15.4 C 2.45972 km/h
Sensor: Nr:Datum:Temp:Abs-Feuchte:Windchill:Wind:
Aussen-T/F 26 11-06-2020 00:00:00 15.74271 C 11.48 g/m*3 15.74 C 2.00035 km/h
27 12-06-2020 00:00:00 19.42083 C 12.29 g/m*3 19.42 C 5.55 km/h
28 13-06-2020 00:00:00 20.95799 C 12.96 g/m*3 20.96 C 4.51701 km/h
29 14-06-2020 00:00:00 18.87917 C 13.01 g/m*3 18.88 C 3.71146 km/h
30 15-06-2020 00:00:00 18.60291 C 12.82 g/m*3 18.6 C 2.99891 km/h
31 16-06-2020 00:00:00 18.0434 C 13.69 g/m*3 18.04 C 1.73021 km/h
32 17-06-2020 00:00:00 17.45903 C 13.34 g/m*3 17.46 C 2.12708 km/h
33 18-06-2020 00:00:00 18.51528 C 12.26 g/m*3 18.52 C 7.04444 km/h
34 19-06-2020 00:00:00 16.72674 C 12.02 g/m*3 16.73 C 5.28472 km/h
35 20-06-2020 00:00:00 16.94271 C 12.22 g/m*3 16.94 C 2.92049 km/h
36 21-06-2020 00:00:00 19.05278 C 12.22 g/m*3 19.05 C 4.57847 km/h
37 22-06-2020 00:00:00 18.83785 C 11.69 g/m*3 18.84 C 5.54479 km/h
38 23-06-2020 00:00:00 19.59583 C 11.59 g/m*3 19.6 C 4.04375 km/h
39 24-06-2020 00:00:00 21.22153 C 11.17 g/m*3 21.22 C 6.9809 km/h
40 25-06-2020 00:00:00 21.70278 C 12.93 g/m*3 21.7 C 6.25174 km/h
41 26-06-2020 00:00:00 21.67743 C 13.49 g/m*3 21.68 C 4.66563 km/h
42 27-06-2020 00:00:00 22.68785 C 14.63 g/m*3 22.69 C 7.36736 km/h
43 28-06-2020 00:00:00 19.86979 C 12.42 g/m*3 19.87 C 6.54306 km/h
44 29-06-2020 00:00:00 17.69792 C 10.81 g/m*3 17.7 C 7.67604 km/h
45 30-06-2020 00:00:00 16.88194 C 10.24 g/m*3 16.88 C 6.7059 km/h
46 01-07-2020 00:00:00 21.29896 C 13.31 g/m*3 21.3 C 10.40972 km/h
47 02-07-2020 00:00:00 18.73125 C 13.11 g/m*3 18.73 C 5.31354 km/h
48 03-07-2020 00:00:00 17.73958 C 10.91 g/m*3 17.74 C 5.90243 km/h
49 04-07-2020 00:00:00 19.09826 C 11.22 g/m*3 19.1 C 9.03576 km/h
50 05-07-2020 00:00:00 22.80243 C 14.45 g/m*3 22.8 C 14.43472 km/h
Sensor: Nr:Datum:Temp:Abs-Feuchte:Windchill:Wind:
Aussen-T/F 51 06-07-2020 00:00:00 16.79653 C 9.41 g/m*3 16.8 C 9.54965 km/h
52 07-07-2020 00:00:00 16.09792 C 9.28 g/m*3 16.1 C 4.51979 km/h
53 08-07-2020 00:00:00 15.87639 C 11.63 g/m*3 15.88 C 2.19965 km/h
54 09-07-2020 00:00:00 21.61424 C 14.17 g/m*3 21.61 C 7.27465 km/h
55 10-07-2020 00:00:00 18.63368 C 12.54 g/m*3 18.63 C 7.30625 km/h
56 11-07-2020 00:00:00 16.57431 C 9.5 g/m*3 16.57 C 5.36806 km/h
57 12-07-2020 00:00:00 16.85382 C 9.47 g/m*3 16.85 C 4.99965 km/h
58 13-07-2020 00:00:00 19.08542 C 9.77 g/m*3 19.09 C 3.90694 km/h
59 14-07-2020 00:00:00 18.66215 C 10.73 g/m*3 18.66 C 4.1316 km/h
60 15-07-2020 00:00:00 17.55208 C 10.88 g/m*3 17.55 C 7.17049 km/h
61 16-07-2020 00:00:00 16.0875 C 12.17 g/m*3 16.09 C 3.15556 km/h
62 17-07-2020 00:00:00 18.58611 C 12.76 g/m*3 18.59 C 4.21146 km/h
63 18-07-2020 00:00:00 19.51944 C 12.49 g/m*3 19.52 C 2.44375 km/h
64 19-07-2020 00:00:00 22.30451 C 12.45 g/m*3 22.3 C 4.27847 km/h
65 20-07-2020 00:00:00 19.42708 C 11.97 g/m*3 19.43 C 5.98542 km/h
66 21-07-2020 00:00:00 17.64722 C 9.36 g/m*3 17.65 C 6.82917 km/h
67 22-07-2020 00:00:00 17.13264 C 9.19 g/m*3 17.13 C 4.72708 km/h
68 23-07-2020 00:00:00 18.84618 C 9.69 g/m*3 18.85 C 3.73542 km/h
69 24-07-2020 00:00:00 21.21007 C 10.98 g/m*3 21.21 C 5.5434 km/h
70 25-07-2020 00:00:00 21.01562 C 12.46 g/m*3 21.02 C 5.85486 km/h
71 26-07-2020 00:00:00 20.87674 C 12.83 g/m*3 20.88 C 8.55556 km/h
72 27-07-2020 00:00:00 21.66215 C 12.17 g/m*3 21.66 C 4.14063 km/h
73 28-07-2020 00:00:00 22.91424 C 11.11 g/m*3 22.91 C 8.9559 km/h
74 29-07-2020 00:00:00 18.94583 C 10.01 g/m*3 18.95 C 5.47014 km/h
75 30-07-2020 00:00:00 20.4309 C 10.48 g/m*3 20.43 C 3.57708 km/h
Sensor: Nr:Datum:Temp:Abs-Feuchte:Windchill:Wind:
Aussen-T/F 76 31-07-2020 00:00:00 24.16007 C 11.62 g/m*3 24.16 C 4.00486 km/h
77 01-08-2020 00:00:00 21.98437 C 15.22 g/m*3 21.98 C 4.02361 km/h
78 02-08-2020 00:00:00 21.28472 C 13.76 g/m*3 21.28 C 6.21458 km/h
79 03-08-2020 00:00:00 18.1684 C 11.28 g/m*3 18.17 C 2.92361 km/h
80 04-08-2020 00:00:00 19.15486 C 10.65 g/m*3 19.15 C 6.45208 km/h
81 05-08-2020 00:00:00 19.44549 C 10.24 g/m*3 19.45 C 3.93229 km/h
82 06-08-2020 00:00:00 21.8184 C 11.42 g/m*3 21.82 C 3.88889 km/h
83 07-08-2020 00:00:00 23.97535 C 12.92 g/m*3 23.98 C 3.60313 km/h
84 08-08-2020 00:00:00 26.13125 C 14.27 g/m*3 26.13 C 2.67743 km/h
85 09-08-2020 00:00:00 24.35937 C 14.79 g/m*3 24.36 C 2.33125 km/h
86 10-08-2020 00:00:00 25.68472 C 16.31 g/m*3 25.68 C 5.31979 km/h
87 11-08-2020 00:00:00 25.77396 C 16.38 g/m*3 25.77 C 4.50417 km/h
88 12-08-2020 00:00:00 23.65799 C 17.61 g/m*3 23.66 C 4.37049 km/h
89 13-08-2020 00:00:00 23.34201 C 17.36 g/m*3 23.34 C 4.0875 km/h
90 14-08-2020 00:00:00 23.16285 C 16 g/m*3 23.16 C 4.93507 km/h
91 15-08-2020 00:00:00 21.83368 C 16.27 g/m*3 21.83 C 1.87465 km/h
92 16-08-2020 00:00:00 22.52535 C 15.98 g/m*3 22.53 C 4.53715 km/h

Maximal/Minimal-Werte vom 17.05.2020 - 16.08.2020

Sensor Min Max Avg
Temp
(Aussen-T/F)
5.8 °C
18-05-2020  06:15:00
38.2 °C
08-08-2020  17:10:00
18.86 °C
Abs-Feuchte
(Aussen-T/F)
7.24 g/m*3
17-05-2020  00:00:00
17.61 g/m*3
12-08-2020  00:00:00
11.47 g/m*3
Windchill
(Aussen-T/F)
11.51 C
05-06-2020  00:00:00
26.13 C
08-08-2020  00:00:00
18.65 C

Die Daten stammen von einer Davis Vantage Pro 2 Wetter-Station und werden unter Linux mit der Software wview2wettercgi und aufbereitet. Alle Angaben erfolgen ohne Gewähr für ihre Vollständigkeit oder Richtigkeit.
Kontakt: Rainer Krienke krienke@uni-koblenz.de . Meine Webseiten an der Uni Koblenz oder privat.
Version: $Revision: 0.78 $